createdAt,value
2017-02-06T00:03:10.123Z,999.8
2017-02-06T00:13:21.929Z,1000
2017-02-06T00:23:33.738Z,1000.2
2017-02-06T00:33:45.504Z,1000.3
2017-02-06T00:43:57.341Z,1000.3
2017-02-06T00:54:09.162Z,1000.3
2017-02-06T01:04:21.001Z,1000.4
2017-02-06T01:14:32.845Z,1000.5
2017-02-06T01:24:44.729Z,1000.6
2017-02-06T01:34:56.594Z,1000.9
2017-02-06T01:45:08.407Z,1001
2017-02-06T01:55:20.226Z,1001.1
2017-02-06T02:05:31.992Z,1001.3
2017-02-06T02:15:43.739Z,1001.5
2017-02-06T02:25:55.478Z,1001.8
2017-02-06T02:36:07.205Z,1002.1
2017-02-06T02:46:18.897Z,1002.3
2017-02-06T02:56:30.645Z,1002.4
2017-02-06T03:06:42.359Z,1002.6
2017-02-06T03:16:54.016Z,1002.7
2017-02-06T03:27:05.668Z,1003
2017-02-06T03:37:17.342Z,1003.1
2017-02-06T03:47:29.021Z,1003.3
2017-02-06T03:57:40.732Z,1003.4
2017-02-06T04:07:52.443Z,1003.5
2017-02-06T04:18:04.202Z,1003.6
2017-02-06T04:28:15.910Z,1003.8
2017-02-06T04:38:27.693Z,1003.8
2017-02-06T04:48:39.467Z,1004
2017-02-06T04:58:51.217Z,1004
2017-02-06T05:09:02.964Z,1004.2
2017-02-06T05:19:14.723Z,1004.2
2017-02-06T05:29:26.510Z,1004.2
2017-02-06T05:39:38.342Z,1004.4
2017-02-06T05:49:50.133Z,1004.7
2017-02-06T06:00:01.964Z,1004.8
2017-02-06T06:10:13.675Z,1004.9
2017-02-06T06:20:25.385Z,1005.1
2017-02-06T06:30:37.082Z,1005.3
2017-02-06T06:40:48.778Z,1005.5
2017-02-06T06:51:00.535Z,1005.7
2017-02-06T07:01:12.253Z,1005.8
2017-02-06T07:11:23.981Z,1005.9
2017-02-06T07:21:35.674Z,1006.1
2017-02-06T07:31:47.412Z,1006.3
2017-02-06T07:41:59.162Z,1006.6
2017-02-06T07:52:10.853Z,1006.8
2017-02-06T08:02:22.525Z,1007
2017-02-06T08:12:34.092Z,1007.2
2017-02-06T08:22:45.639Z,1007.1
2017-02-06T08:32:57.121Z,1007.4
2017-02-06T08:43:08.544Z,1007.5
2017-02-06T08:53:19.906Z,1007.6
2017-02-06T09:03:31.203Z,1007.7
2017-02-06T09:13:42.468Z,1007.7
2017-02-06T09:23:53.775Z,1007.9
2017-02-06T09:34:05.014Z,1008
2017-02-06T09:44:16.238Z,1008.2
2017-02-06T09:54:27.404Z,1008.3
2017-02-06T10:04:38.625Z,1008.6
2017-02-06T10:14:49.930Z,1008.5
2017-02-06T10:25:01.206Z,1008.7
2017-02-06T10:35:12.454Z,1008.7
2017-02-06T10:45:23.641Z,1008.8
2017-02-06T10:55:34.765Z,1008.8
2017-02-06T11:05:45.766Z,1008.8
2017-02-06T11:15:56.788Z,1008.8
2017-02-06T11:26:07.848Z,1008.7
2017-02-06T11:36:18.886Z,1008.8
2017-02-06T11:46:29.945Z,1008.6
2017-02-06T11:56:41.017Z,1008.7
2017-02-06T12:06:52.007Z,1008.7
2017-02-06T12:17:03.082Z,1008.6
2017-02-06T12:27:14.264Z,1008.6
2017-02-06T12:37:25.462Z,1008.5
2017-02-06T12:47:36.695Z,1008.6
2017-02-06T12:57:47.861Z,1008.8
2017-02-06T13:07:59.055Z,1008.7
2017-02-06T13:18:10.251Z,1008.8
2017-02-06T13:28:21.483Z,1008.7
2017-02-06T13:38:32.694Z,1008.8
2017-02-06T13:48:43.917Z,1008.8
2017-02-06T13:58:55.139Z,1008.9
2017-02-06T14:09:06.384Z,1008.9
2017-02-06T14:19:17.647Z,1008.9
2017-02-06T14:29:28.901Z,1009
2017-02-06T14:39:40.212Z,1008.9
2017-02-06T14:49:51.583Z,1009.2
2017-02-06T15:00:02.782Z,1009.3
2017-02-06T15:10:14.094Z,1009.4
2017-02-06T15:20:25.353Z,1009.5
2017-02-06T15:30:36.649Z,1009.5
2017-02-06T15:40:47.982Z,1009.7
2017-02-06T15:50:59.346Z,1009.6
2017-02-06T16:01:10.749Z,1009.9
2017-02-06T16:11:22.144Z,1009.8
2017-02-06T16:21:33.611Z,1009.9
2017-02-06T16:31:45.067Z,1009.8
2017-02-06T16:41:56.538Z,1010
2017-02-06T16:52:07.991Z,1010.1
2017-02-06T17:02:19.466Z,1010.2
2017-02-06T17:12:31.006Z,1010.3
2017-02-06T17:22:42.481Z,1010.3
2017-02-06T17:32:53.960Z,1010.3
2017-02-06T17:43:05.478Z,1010.3
2017-02-06T17:53:17.043Z,1010.4
2017-02-06T18:03:28.610Z,1010.4
2017-02-06T18:13:40.180Z,1010.4
2017-02-06T18:23:51.730Z,1010.5
2017-02-06T18:34:03.291Z,1010.4
2017-02-06T18:44:14.913Z,1010.5
2017-02-06T18:54:26.544Z,1010.5
2017-02-06T19:04:38.198Z,1010.4
2017-02-06T19:14:49.872Z,1010.4
2017-02-06T19:25:01.512Z,1010.4
2017-02-06T19:35:13.170Z,1010.2
2017-02-06T19:45:24.814Z,1010.1
2017-02-06T19:55:36.522Z,1010
2017-02-06T20:05:48.234Z,1010
2017-02-06T20:15:59.916Z,1010.1
2017-02-06T20:26:11.621Z,1010
2017-02-06T20:36:23.291Z,1010
2017-02-06T20:46:34.967Z,1010
2017-02-06T20:56:46.690Z,1010.1
2017-02-06T21:06:58.390Z,1009.8
2017-02-06T21:17:10.092Z,1009.8
2017-02-06T21:27:21.788Z,1009.8
2017-02-06T21:37:33.425Z,1009.7
2017-02-06T21:47:45.118Z,1009.7
2017-02-06T21:57:56.812Z,1009.7
2017-02-06T22:08:08.498Z,1009.6
2017-02-06T22:18:20.224Z,1009.8
2017-02-06T22:28:31.914Z,1009.7
2017-02-06T22:38:43.549Z,1009.6
2017-02-06T22:48:55.264Z,1009.6
2017-02-06T22:59:07.013Z,1009.6
2017-02-06T23:09:18.739Z,1009.6
2017-02-06T23:19:30.486Z,1009.7
2017-02-06T23:29:42.242Z,1009.5
2017-02-06T23:39:53.975Z,1009.7
2017-02-06T23:50:05.726Z,1009.5
